熊本市, 日本

2014年10月01日 06時52分 (GMT +0900)
Kumamoto | Change Station
CLOSE
Current Station
機場
Location: Kumamoto,
海拔: 643 ft
附近的氣象站

海拔 643 ft 32.84 °N, 130.86 °E | Updated 16 minutes ago

Mostly Cloudy
多雲
64 °F
感覺像 64 °F
2
風 變化 風 來自 變化

今日
高 -- | 低 -- °F
--% 降水機率
昨天
高 -- | 低 -- °F
Precip. -- 英寸
6:10 AM 6:01 PM
眉月, 40% visible
氣壓 29.98 英寸
能見度 3.1 英里
多雲 少數 100 ft
多雲 4000 ft
露點 64 °F
濕度 100%
降雨量 0.00 英寸
積雪深度 不適用。
紫外線 0 / 12
花粉 不適用。
空氣質素 不適用。
Flu Activity 不適用。
SPECI RJFT 302136Z VRB02KT 5000 R07/P1800N BR BCFG FEW001 BKN040 18/18 Q1015 RMK 1ST001 7SC040 A2998 1000SE-SW FG SE-SW

More Conditions Fewer Conditions

氣壓 29.98 英寸
能見度 3.1 英里
多雲 少數 100 ft
多雲 4000 ft
露點 64 °F
濕度 100%
降雨量 0.00 英寸
積雪深度 不適用。
紫外線 0 / 12
花粉 不適用。
空氣質素 不適用。
Flu Activity 不適用。
SPECI RJFT 302136Z VRB02KT 5000 R07/P1800N BR BCFG FEW001 BKN040 18/18 Q1015 RMK 1ST001 7SC040 A2998 1000SE-SW FG SE-SW

More Conditions Fewer Conditions

10-Day Weather Forecast

Almanac

天文

Oct. 01, 2014 昇起 降落
實際時間 06:10 JST 18:01 JST
民用曙暮光 05:45 JST 18:26 JST
航海曙暮光 05:17 JST 18:55 JST
天文學微明 04:48 JST 19:23 JST
月亮 12:25 JST (10/1) 23:09 JST (10/1)
可見光的長度 12h 40m
白晝時間
11h 51m
Tomorrow will be 2m 0s shorter.
眉月, 40% of the Moon is Illuminated
9月 30
眉月
10月 1
第一季
10月 8
滿月
10月 15
第四季
10月 23

昨天之最

國家高溫 國家低溫

Community

WunderPhotos

Upload Photos

1,757,755 照片已上傳!

Nearby

積雪量

Not available.

地震活動

城市 距離 時間和日期
附近沒有最近發生的地震活動。
顯示的最小幅度是2.5。

沿海水溫

地點 溫度
無任何天氣監測站報告

附近的氣象站